Disclaimer

Please do not use the information listed here in-flight or in-navigation, as they are not provided to us by the airports but are provided by volunteers, so they might be outdated.

Search


Regions


Airport information page

Radio informations:
Tower (TWR) - 118.3 MHz
PRECISION - 120.9 MHz

Airport informations:
Latitude: 47° 41' 15.00" N
Longitude: 026° 21' 14.60" E
Elevation: 1375 feet - 419 meters
Operating hours: Remarks
Operating agency: Civil government, landing fees and diplomatic clearance may be required
Timezone: UTC+2(+3DT)
Fuel: Jet A1+, Jet A1 with icing inhibitor.

Runway information:
16/34 - 5906 x 98 feet< - >1800 x 30 meters

Recent METARs:
LRSV 172000Z 33004KT 6000 -SN BKN020 M02/M02 Q1032 R16/550194
LRSV 172030Z 33004KT 5000 -SN BR SCT014 BKN020 M02/M02 Q1032 R16/550194
LRSV 172100Z 34006KT 5000 -SN BR BKN015 M02/M03 Q1032 R16/550194

Airport on the map: